Historyczne dane pomiarowe

Dodano dane terminowe – wersja testowa.

Dane z okresu 1951-2019

Wersja bazy: 1.34 [2019-03-16, lista zmian], aktualizacja planowana na 2019-04-15

Dane meteo z obszaru Polski uzyskane na podstawie danych udostępnionych przez Instytut Meteorologii i Gospodarki Wodnej – Państwowy Instytut Badawczy.

 

Wybierz Datę:    

       

TemperaturaWilgotnośćWiatrCiśnienieOpadyŚniegCzas trwania zjawisk
 Stacja t tx tn tng RH VA  wxwx mslp ppp RRR   cm mm wxwxwxwxwxwxwx
1987-08-14 15.1 21.2 10.5 8.5 95.5- 6.7 1.0---- 4.1------------
1987-08-13 15.1 21.3 9.4 7.4 73.8- 3.7 1.3---- 1.2------------
1987-08-12 13.4 19.3 8.1 5.4 79.0- 3.3 2.0---- 0.2------------
1987-08-11 14.1 18.9 11.4 10.8 80.5- 4.3 4.3---- 1.4------------
1987-08-10 13.7 16.5 12.9 12.2 97.5- 6.3 1.3---- 3.2------------
1987-08-09 15.8 22.7 7.9 6.6 86.3- 6.0 2.3---- 9.1------------
1987-08-08 14.1 22.0 6.0 2.6 75.8- 2.3 3.0---- 0.0------------
1987-08-07 13.1 19.0 6.4 4.1 72.3- 2.0 1.7---- 0.0------------
1987-08-06 10.6 14.5 7.9 7.3 89.0- 6.0 4.3---- 1.0------------
1987-08-05 11.2 16.1 7.4 4.7 91.8- 4.7 6.0---- 1.8------------
1987-08-04 13.4 18.0 11.7 10.5 78.5- 4.3 2.7---- 7.6------------
1987-08-03 14.1 19.1 9.0 8.9 76.5- 5.7 3.0---- 1.9------------
1987-08-02 13.0 17.0 10.6 9.2 86.8- 5.0 4.3---- 2.8------------
1987-08-01 16.0 17.8 14.6 14.2 89.0- 6.3 4.0---- 13.2------------
1987-07-31 15.6 18.8 12.8 13.1 81.5- 7.0 4.3---- 0.5------------
1987-07-30 17.1 25.5 11.6 9.5 80.5- 6.3 1.7---- 2.4------------
1987-07-29 14.3 17.8 10.1 9.2 79.0- 7.0 2.3---- 0.0------------
1987-07-28 13.7 15.7 12.3 12.3 86.8- 7.0 4.7---- 0.0------------
1987-07-27 13.0 19.6 9.4 7.5 78.0- 6.3 5.7---- 11.1------------
1987-07-26 12.9 17.0 8.3 6.3 70.3- 3.3 5.3---- 0.0------------
1987-07-25 14.8 21.1 12.5 9.9 86.5- 6.7 4.7---- 0.0------------
1987-07-24 19.4 24.6 14.9 14.0 74.5- 3.7 3.3---- 0.0------------
1987-07-23 18.0 25.8 12.1 11.0 87.0- 5.7 2.3---- 0.0------------
1987-07-22 19.9 25.0 15.8 15.6 78.3- 3.3 2.0---- 0.0------------
1987-07-21 17.2 22.5 12.4 10.6 90.5- 6.3 3.0---- 13.0------------
1987-07-20 19.5 23.6 15.6 15.1 79.8- 5.7 2.0---- 0.0------------
1987-07-19 18.6 21.6 14.8 14.6 83.3- 6.3 4.0---- 8.6------------
1987-07-18 18.9 22.5 17.2 15.5 88.3- 7.0 1.7---- 21.1------------
1987-07-17 22.1 30.8 17.0 16.6 71.3- 6.3 5.0---- 0.0------------
1987-07-16 19.7 26.5 13.5 12.4 72.3- 5.7 4.0---- 2.8------------
1987-07-15 18.2 25.0 6.0 5.2 68.3- 4.3 6.3---- 0.0------------
1987-07-14 15.8 21.4 6.0 2.5 69.0- 1.0 1.3---- 0.0------------
1987-07-13 16.0 21.1 10.9 7.5 76.8- 4.0 4.3---- 0.0------------
1987-07-12 17.9 24.0 14.0 11.5 82.8- 3.7 2.3---- 0.3------------
1987-07-11 18.0 26.1 10.1 6.0 74.0- 5.7 4.7---- 0.1------------
1987-07-10 14.5 19.4 8.2 7.0 70.3- 2.0 4.7---- 0.0------------
1987-07-09 16.5 21.5 14.5 14.7 77.5- 4.0 4.0---- 0.2------------
1987-07-08 19.2 26.7 13.4 10.7 84.3- 6.0 1.7---- 4.6------------
1987-07-07 20.3 29.3 8.7 6.4 63.3- 2.0 3.0---- 0.0------------
1987-07-06 19.4 26.4 7.5 5.2 59.8- 0.0 2.3---- 0.0------------
1987-07-05 16.9 23.2 8.7 7.0 63.3- 0.7 1.0---- 0.0------------
1987-07-04 17.6 23.0 12.7 11.2 66.8- 3.0 3.0---- 0.0------------
1987-07-03 18.8 23.7 11.9 10.6 67.0- 3.3 1.7---- 0.0------------
1987-07-02 19.1 24.1 11.3 10.1 72.0- 3.3 1.7---- 0.0------------
1987-07-01 21.7 31.5 19.2 16.9 91.3- 5.3 5.0---- 4.6------------
1987-06-30 25.2 32.1 16.0 14.3 71.8- 0.0 2.3---- 0.0------------
1987-06-29 20.8 28.6 12.4 11.1 82.8- 4.7 2.0---- 0.0------------
1987-06-28 17.6 20.4 14.4 13.9 88.8- 6.3 2.7---- 1.4------------
1987-06-27 18.3 22.2 14.6 14.2 69.8- 3.3 2.7---- 0.0------------
1987-06-26 17.5 23.5 9.2 6.3 67.0- 4.0 2.3---- 0.0------------
1987-06-25 13.9 18.7 10.3 10.3 81.8- 6.0 3.0---- 0.1------------
1987-06-24 14.1 19.0 10.1 9.3 82.5- 5.0 2.3---- 11.6------------
1987-06-23 13.0 19.4 6.2 4.2 86.8- 7.0 2.7---- 5.9------------
1987-06-22 15.0 18.8 11.7 8.6 77.8- 7.3 1.7---- 0.1------------
1987-06-21 15.2 21.0 9.9 7.5 89.5- 6.7 3.7---- 1.3------------
1987-06-20 15.3 21.8 5.3 2.2 76.0- 2.7 2.7---- 0.1------------
1987-06-19 12.8 19.2 8.4 6.2 76.3- 3.7 4.0---- 0.0------------
1987-06-18 9.7 15.1 6.2 1.7 92.8- 5.7 2.7---- 4.5------------
1987-06-17 12.4 16.4 9.6 9.3 64.8- 4.0 4.3---- 0.0------------
1987-06-16 10.6 16.5 8.8 9.5 91.5- 7.3 6.0---- 0.1------------
2522.9 ms

 

Źródłem pochodzenia danych jest Instytut Meteorologii i Gospodarki Wodnej – Państwowy Instytut Badawczy. Dane Instytutu Meteorologii i Gospodarki Wodnej – Państwowego Instytutu Badawczego zostały przetworzone.

Dane źródłowe można odnaleźć na stronie https://dane.imgw.pl